BGGH

Godthaab / Nuuk Airport

Nuuk, Greenland
METAR BGGH 201150Z 18019KT 2800 -SN DRSN SCT005 BKN012 OVC016 M01/M01 Q0992
Observed Flight Rules
Nov-20 @ 11:50 UTC (22 minutes ago) Instrument Flight Rules
Wind Visibility Clouds Conditions
180° at 19 knots 2,800 meters
  • Scattered at 500' AGL
  • Broken at 1,200' AGL
  • Overcast at 1,600' AGL
  • Light Snow
  • Low drifting
  • Snow
Temperatures Readings
Current -1°C / 30°F
Dewpoint -1°C / 30°F
Humidity 100%
Altimeter 29.29" Hg
Pressure 992 hPa
Elevation 70
METAR BGGH 201150Z 18019KT 2800 -SN DRSN SCT005 BKN012 OVC016 M01/M01 Q0992
Observed Flight Rules
Nov-20 @ 11:50 UTC
(22 minutes ago)
IFR
Wind Visibility
180° at 19 knots 2,800 meters
Clouds
  • Scattered at 500' AGL
  • Broken at 1,200' AGL
  • Overcast at 1,600' AGL
Conditions
  • Light Snow
  • Low drifting
  • Snow
Temperature Dewpoint
-1°C / 30°F -1°C / 30°F
Humidity Altimeter Pressure
100% 29.29" Hg 992 hPa